createdAt,value
2023-04-25T00:02:42.943Z,99097.63
2023-04-25T00:07:47.148Z,99096.35
2023-04-25T00:12:53.409Z,99097.23
2023-04-25T00:17:57.207Z,99088.45
2023-04-25T00:23:03.094Z,99094.37
2023-04-25T00:28:19.116Z,99093.13
2023-04-25T00:33:35.984Z,99092.55
2023-04-25T00:38:39.412Z,99095.09
2023-04-25T00:43:47.301Z,99094.32
2023-04-25T00:48:55.084Z,99096.45
2023-04-25T00:54:18.883Z,99095.34
2023-04-25T00:59:22.315Z,99097.30
2023-04-25T01:04:46.039Z,99096.02
2023-04-25T01:09:49.506Z,99096.71
2023-04-25T01:14:55.538Z,99100.41
2023-04-25T01:20:20.528Z,99099.45
2023-04-25T01:25:43.958Z,99098.08
2023-04-25T01:30:52.717Z,99097.36
2023-04-25T01:36:08.728Z,99094.77
2023-04-25T01:41:35.637Z,99086.59
2023-04-25T01:46:42.729Z,99082.80
2023-04-25T01:52:06.290Z,99081.91
2023-04-25T01:57:09.915Z,99085.19
2023-04-25T02:02:33.534Z,99084.48
2023-04-25T02:07:52.996Z,99085.52
2023-04-25T02:12:58.751Z,99083.36
2023-04-25T02:18:40.367Z,99079.25
2023-04-25T02:23:50.125Z,99075.52
2023-04-25T02:29:08.216Z,99075.63
2023-04-25T02:34:12.226Z,99078.94
2023-04-25T02:39:41.836Z,99074.35
2023-04-25T02:44:45.350Z,99072.17
2023-04-25T02:49:57.737Z,99073.33
2023-04-25T02:55:21.683Z,99069.86
2023-04-25T03:01:06.683Z,99070.35
2023-04-25T03:06:19.491Z,99065.61
2023-04-25T03:11:53.286Z,99066.02
2023-04-25T03:17:08.023Z,99071.07
2023-04-25T03:22:57.246Z,99076.42
2023-04-25T03:28:00.977Z,99076.61
2023-04-25T03:33:12.465Z,99080.98
2023-04-25T03:38:57.714Z,99083.88
2023-04-25T03:44:04.605Z,99091.58
2023-04-25T03:49:10.946Z,99095.52
2023-04-25T03:54:44.083Z,99097.96
2023-04-25T04:00:04.671Z,99104.86
2023-04-25T04:05:27.997Z,99105.76
2023-04-25T04:10:33.000Z,99107.84
2023-04-25T04:16:00.098Z,99111.00
2023-04-25T04:21:16.681Z,99116.16
2023-04-25T04:26:41.221Z,99115.94
2023-04-25T04:32:02.421Z,99116.79
2023-04-25T04:37:08.181Z,99116.38
2023-04-25T04:42:12.773Z,99126.04
2023-04-25T04:47:40.684Z,99133.27
2023-04-25T04:53:18.632Z,99133.50
2023-04-25T04:58:40.881Z,99128.89
2023-04-25T05:04:38.187Z,99124.14
2023-04-25T05:10:04.450Z,99127.35
2023-04-25T05:15:36.570Z,99133.14
2023-04-25T05:21:05.907Z,99135.58
2023-04-25T05:26:49.326Z,99127.54
2023-04-25T05:32:26.461Z,99127.90
2023-04-25T05:37:41.321Z,99127.70
2023-04-25T05:42:50.050Z,99130.70
2023-04-25T05:48:06.192Z,99138.81
2023-04-25T05:53:27.793Z,99141.52
2023-04-25T05:58:39.291Z,99145.55
2023-04-25T06:03:47.817Z,99147.60
2023-04-25T06:08:51.712Z,99154.35
2023-04-25T06:14:02.902Z,99166.41
2023-04-25T06:19:06.586Z,99194.78
2023-04-25T06:24:12.803Z,99218.41
2023-04-25T06:29:16.460Z,99219.56
2023-04-25T06:34:50.768Z,99211.03
2023-04-25T06:39:58.771Z,99214.09
2023-04-25T06:45:04.519Z,99206.88
2023-04-25T06:50:30.883Z,99201.45
2023-04-25T06:55:36.561Z,99192.00
2023-04-25T07:01:02.884Z,99191.16
2023-04-25T07:06:30.922Z,99186.85
2023-04-25T07:11:34.997Z,99183.09
2023-04-25T07:17:09.279Z,99189.65
2023-04-25T07:22:20.035Z,99194.54
2023-04-25T07:27:25.721Z,99193.30
2023-04-25T07:32:51.314Z,99194.17
2023-04-25T07:38:14.573Z,99201.39
2023-04-25T07:43:18.400Z,99203.52
2023-04-25T07:48:51.069Z,99206.12
2023-04-25T07:53:55.582Z,99205.63
2023-04-25T07:59:30.537Z,99212.99
2023-04-25T08:04:35.973Z,99214.41
2023-04-25T08:09:42.618Z,99215.60
2023-04-25T08:14:50.815Z,99212.38
2023-04-25T08:19:57.691Z,99215.37
2023-04-25T08:25:21.066Z,99219.41
2023-04-25T08:30:25.848Z,99227.34
2023-04-25T08:35:34.287Z,99233.23
2023-04-25T08:40:42.352Z,99241.16
2023-04-25T08:45:55.285Z,99244.13
2023-04-25T08:56:18.953Z,99264.56
2023-04-25T09:01:23.417Z,99265.43
2023-04-25T09:07:07.879Z,99267.05
2023-04-25T09:12:21.729Z,99274.73
2023-04-25T09:18:21.488Z,99280.41
2023-04-25T09:23:28.038Z,99282.95
2023-04-25T09:29:31.533Z,99285.40
2023-04-25T09:34:43.831Z,99293.38
2023-04-25T09:39:52.548Z,99297.64
2023-04-25T09:45:03.191Z,99306.05
2023-04-25T09:50:20.183Z,99308.52
2023-04-25T09:55:32.873Z,99314.58
2023-04-25T10:00:37.204Z,99316.61
2023-04-25T10:05:45.668Z,99318.76
2023-04-25T10:10:51.900Z,99315.45
2023-04-25T10:15:59.512Z,99313.23
2023-04-25T10:21:08.061Z,99317.19
2023-04-25T10:26:13.996Z,99314.30
2023-04-25T10:31:27.993Z,99319.16
2023-04-25T10:36:58.227Z,99313.65
2023-04-25T10:42:22.768Z,99310.46
2023-04-25T10:47:46.912Z,99309.30
2023-04-25T10:52:57.264Z,99310.42
2023-04-25T10:58:02.154Z,99307.34
2023-04-25T11:03:29.221Z,99312.39
2023-04-25T11:08:49.233Z,99315.11
2023-04-25T11:14:15.315Z,99315.06
2023-04-25T11:19:38.007Z,99315.90
2023-04-25T11:25:21.759Z,99315.59
2023-04-25T11:30:31.762Z,99316.88
2023-04-25T11:35:45.410Z,99316.35
2023-04-25T11:40:53.856Z,99317.70
2023-04-25T11:45:57.386Z,99317.52
2023-04-25T11:51:14.613Z,99315.89
2023-04-25T11:56:21.864Z,99318.67
2023-04-25T12:02:23.434Z,99319.79
2023-04-25T12:08:30.346Z,99318.65
2023-04-25T12:13:33.732Z,99315.26
2023-04-25T12:18:37.749Z,99320.23
2023-04-25T12:23:47.259Z,99318.47
2023-04-25T12:28:50.865Z,99320.40
2023-04-25T12:33:54.604Z,99322.80
2023-04-25T12:39:48.595Z,99315.95
2023-04-25T12:44:51.877Z,99319.36
2023-04-25T12:50:15.293Z,99320.84
2023-04-25T12:55:18.990Z,99314.33
2023-04-25T13:00:22.351Z,99311.27
2023-04-25T13:05:28.895Z,99308.95
2023-04-25T13:10:43.584Z,99305.66
2023-04-25T13:15:47.420Z,99302.39
2023-04-25T13:21:12.695Z,99302.58
2023-04-25T13:26:16.836Z,99303.09
2023-04-25T13:31:33.012Z,99297.40
2023-04-25T13:36:39.629Z,99298.74
2023-04-25T13:42:05.899Z,99296.81
2023-04-25T13:47:29.989Z,99293.20
2023-04-25T13:52:35.910Z,99290.52
2023-04-25T13:57:41.111Z,99292.58
2023-04-25T14:02:51.030Z,99290.51
2023-04-25T14:08:34.879Z,99286.36
2023-04-25T14:13:38.558Z,99286.36
2023-04-25T14:18:55.501Z,99293.39
2023-04-25T14:24:17.489Z,99291.25
2023-04-25T14:29:20.774Z,99292.88
2023-04-25T14:34:37.995Z,99292.48
2023-04-25T14:39:50.993Z,99293.48
2023-04-25T14:44:56.648Z,99297.29
2023-04-25T14:50:03.404Z,99298.05
2023-04-25T14:55:12.853Z,99302.21
2023-04-25T15:00:44.220Z,99304.71
2023-04-25T15:05:49.942Z,99303.46
2023-04-25T15:11:15.909Z,99301.23
2023-04-25T15:16:44.184Z,99303.77
2023-04-25T15:22:41.155Z,99310.90
2023-04-25T15:28:01.230Z,99307.67
2023-04-25T15:33:09.292Z,99309.52
2023-04-25T15:38:15.733Z,99312.74
2023-04-25T15:43:30.489Z,99313.68
2023-04-25T15:48:34.194Z,99318.08
2023-04-25T15:53:47.726Z,99325.23
2023-04-25T15:59:11.242Z,99330.84
2023-04-25T16:04:16.016Z,99326.37
2023-04-25T16:09:19.775Z,99321.86
2023-04-25T16:14:25.774Z,99329.66
2023-04-25T16:19:41.252Z,99336.64
2023-04-25T16:24:50.441Z,99338.73
2023-04-25T16:30:18.339Z,99341.15
2023-04-25T16:35:24.760Z,99346.25
2023-04-25T16:40:33.344Z,99349.56
2023-04-25T16:45:56.882Z,99352.79
2023-04-25T16:51:01.245Z,99357.17
2023-04-25T16:56:07.807Z,99355.02
2023-04-25T17:01:11.764Z,99356.89
2023-04-25T17:06:18.336Z,99362.12
2023-04-25T17:11:21.597Z,99364.24
2023-04-25T17:16:38.016Z,99367.88
2023-04-25T17:21:44.702Z,99373.64
2023-04-25T17:26:59.383Z,99382.70
2023-04-25T17:32:03.405Z,99386.91
2023-04-25T17:37:08.231Z,99388.02
2023-04-25T17:42:42.218Z,99394.98
2023-04-25T17:47:45.946Z,99395.44
2023-04-25T17:53:32.259Z,99399.09
2023-04-25T17:58:38.776Z,99404.85
2023-04-25T18:03:45.561Z,99407.87
2023-04-25T18:08:52.849Z,99419.98
2023-04-25T18:14:04.184Z,99428.00
2023-04-25T18:19:24.138Z,99441.11
2023-04-25T18:24:28.555Z,99444.96
2023-04-25T18:29:58.193Z,99452.42
2023-04-25T18:35:05.260Z,99453.20
2023-04-25T18:40:27.517Z,99463.13
2023-04-25T18:45:36.653Z,99469.33
2023-04-25T18:50:44.621Z,99471.93
2023-04-25T18:56:35.901Z,99478.30
2023-04-25T19:01:41.949Z,99480.30
2023-04-25T19:07:08.966Z,99479.29
2023-04-25T19:12:22.088Z,99481.36
2023-04-25T19:17:49.079Z,99488.41
2023-04-25T19:22:53.431Z,99495.05
2023-04-25T19:27:58.810Z,99497.48
2023-04-25T19:33:04.995Z,99498.21
2023-04-25T19:38:08.740Z,99499.40
2023-04-25T19:43:12.019Z,99496.77
2023-04-25T19:48:17.787Z,99492.30
2023-04-25T19:53:21.308Z,99498.10
2023-04-25T19:58:27.274Z,99495.55
2023-04-25T20:03:31.016Z,99496.09
2023-04-25T20:09:09.604Z,99494.23
2023-04-25T20:14:15.685Z,99492.88
2023-04-25T20:19:22.615Z,99495.13
2023-04-25T20:24:26.140Z,99496.36
2023-04-25T20:29:43.572Z,99495.55
2023-04-25T20:34:49.591Z,99493.35
2023-04-25T20:39:59.906Z,99496.27
2023-04-25T20:45:16.803Z,99499.25
2023-04-25T20:50:39.762Z,99502.60
2023-04-25T20:55:56.525Z,99509.59
2023-04-25T21:00:59.995Z,99504.39
2023-04-25T21:06:09.550Z,99507.05
2023-04-25T21:11:13.111Z,99507.44
2023-04-25T21:16:21.888Z,99509.73
2023-04-25T21:21:26.626Z,99507.70
2023-04-25T21:26:45.900Z,99506.16
2023-04-25T21:31:49.435Z,99503.36
2023-04-25T21:36:52.877Z,99500.29
2023-04-25T21:41:56.424Z,99501.52
2023-04-25T21:47:03.061Z,99501.90
2023-04-25T21:52:17.189Z,99500.48
2023-04-25T21:57:22.142Z,99498.40
2023-04-25T22:02:40.279Z,99497.35
2023-04-25T22:07:46.413Z,99500.48
2023-04-25T22:12:53.040Z,99502.94
2023-04-25T22:17:58.661Z,99510.46
2023-04-25T22:23:15.732Z,99512.49
2023-04-25T22:33:54.853Z,99519.72
2023-04-25T22:39:39.502Z,99524.39
2023-04-25T22:44:53.158Z,99527.05
2023-04-25T22:50:39.616Z,99525.92
2023-04-25T22:56:06.228Z,99531.93
2023-04-25T23:01:12.327Z,99533.95
2023-04-25T23:06:43.984Z,99533.05
2023-04-25T23:11:57.487Z,99536.73
2023-04-25T23:17:49.352Z,99547.72
2023-04-25T23:23:03.971Z,99555.72
2023-04-25T23:28:24.296Z,99550.92
2023-04-25T23:33:52.006Z,99549.34
2023-04-25T23:39:18.954Z,99552.96
2023-04-25T23:45:05.156Z,99562.67
2023-04-25T23:50:17.259Z,99566.34
2023-04-25T23:55:24.315Z,99566.27
